sensor_id;sensor_type;location;lat;lon;timestamp;P1;durP1;ratioP1;P2;durP2;ratioP2
24743;SDS011;12844;52.110;5.548;2023-03-18T00:00:51;1.98;;;1.63;;
24743;SDS011;12844;52.110;5.548;2023-03-18T00:03:25;1.92;;;1.73;;
24743;SDS011;12844;52.110;5.548;2023-03-18T00:05:50;2.70;;;1.90;;
24743;SDS011;12844;52.110;5.548;2023-03-18T00:08:17;2.50;;;1.95;;
24743;SDS011;12844;52.110;5.548;2023-03-18T00:10:42;2.10;;;1.90;;
24743;SDS011;12844;52.110;5.548;2023-03-18T00:13:08;2.20;;;1.90;;
24743;SDS011;12844;52.110;5.548;2023-03-18T00:15:34;2.47;;;1.95;;
24743;SDS011;12844;52.110;5.548;2023-03-18T00:18:00;2.85;;;1.85;;
24743;SDS011;12844;52.110;5.548;2023-03-18T00:20:25;2.35;;;1.90;;
24743;SDS011;12844;52.110;5.548;2023-03-18T00:23:03;2.67;;;1.90;;
24743;SDS011;12844;52.110;5.548;2023-03-18T00:25:30;2.00;;;1.80;;
24743;SDS011;12844;52.110;5.548;2023-03-18T00:27:56;2.70;;;1.80;;
24743;SDS011;12844;52.110;5.548;2023-03-18T00:30:22;2.30;;;1.60;;
24743;SDS011;12844;52.110;5.548;2023-03-18T00:32:47;1.98;;;1.77;;
24743;SDS011;12844;52.110;5.548;2023-03-18T00:35:13;2.42;;;1.73;;
24743;SDS011;12844;52.110;5.548;2023-03-18T00:37:40;1.90;;;1.70;;
24743;SDS011;12844;52.110;5.548;2023-03-18T00:40:07;2.30;;;1.90;;
24743;SDS011;12844;52.110;5.548;2023-03-18T00:42:41;2.22;;;1.67;;
24743;SDS011;12844;52.110;5.548;2023-03-18T00:45:11;2.17;;;1.70;;
24743;SDS011;12844;52.110;5.548;2023-03-18T00:47:40;2.20;;;1.88;;
24743;SDS011;12844;52.110;5.548;2023-03-18T00:50:06;2.80;;;2.10;;
24743;SDS011;12844;52.110;5.548;2023-03-18T00:52:33;2.58;;;2.10;;
24743;SDS011;12844;52.110;5.548;2023-03-18T00:54:59;3.10;;;1.98;;
24743;SDS011;12844;52.110;5.548;2023-03-18T00:57:26;2.35;;;2.10;;
24743;SDS011;12844;52.110;5.548;2023-03-18T00:59:53;2.28;;;1.92;;
24743;SDS011;12844;52.110;5.548;2023-03-18T01:02:19;2.60;;;2.10;;
24743;SDS011;12844;52.110;5.548;2023-03-18T01:04:44;2.20;;;2.00;;
24743;SDS011;12844;52.110;5.548;2023-03-18T01:07:10;2.20;;;1.95;;
24743;SDS011;12844;52.110;5.548;2023-03-18T01:09:37;2.70;;;2.00;;
24743;SDS011;12844;52.110;5.548;2023-03-18T01:12:05;2.35;;;1.88;;
24743;SDS011;12844;52.110;5.548;2023-03-18T01:14:32;3.13;;;2.20;;
24743;SDS011;12844;52.110;5.548;2023-03-18T01:16:58;2.65;;;2.08;;
24743;SDS011;12844;52.110;5.548;2023-03-18T01:19:24;2.70;;;1.92;;
24743;SDS011;12844;52.110;5.548;2023-03-18T01:21:50;2.90;;;2.13;;
24743;SDS011;12844;52.110;5.548;2023-03-18T01:24:16;2.53;;;1.75;;
24743;SDS011;12844;52.110;5.548;2023-03-18T01:26:41;2.72;;;1.98;;
24743;SDS011;12844;52.110;5.548;2023-03-18T01:29:08;2.95;;;2.05;;
24743;SDS011;12844;52.110;5.548;2023-03-18T01:31:34;3.53;;;2.10;;
24743;SDS011;12844;52.110;5.548;2023-03-18T01:34:01;2.45;;;1.95;;
24743;SDS011;12844;52.110;5.548;2023-03-18T01:36:27;2.28;;;1.88;;
24743;SDS011;12844;52.110;5.548;2023-03-18T01:38:53;2.50;;;1.85;;
24743;SDS011;12844;52.110;5.548;2023-03-18T01:41:20;2.70;;;1.90;;
24743;SDS011;12844;52.110;5.548;2023-03-18T01:43:46;3.20;;;1.92;;
24743;SDS011;12844;52.110;5.548;2023-03-18T01:51:57;2.40;;;1.88;;
24743;SDS011;12844;52.110;5.548;2023-03-18T01:54:30;2.20;;;1.77;;
24743;SDS011;12844;52.110;5.548;2023-03-18T01:57:04;2.80;;;2.03;;
24743;SDS011;12844;52.110;5.548;2023-03-18T01:59:30;2.17;;;1.80;;
24743;SDS011;12844;52.110;5.548;2023-03-18T02:02:02;2.70;;;1.98;;
24743;SDS011;12844;52.110;5.548;2023-03-18T02:04:44;2.20;;;1.98;;
24743;SDS011;12844;52.110;5.548;2023-03-18T02:07:14;2.53;;;1.98;;
24743;SDS011;12844;52.110;5.548;2023-03-18T02:09:45;3.38;;;2.05;;
24743;SDS011;12844;52.110;5.548;2023-03-18T02:12:12;2.10;;;1.90;;
24743;SDS011;12844;52.110;5.548;2023-03-18T02:14:40;2.55;;;2.05;;
24743;SDS011;12844;52.110;5.548;2023-03-18T02:17:08;3.00;;;2.05;;
24743;SDS011;12844;52.110;5.548;2023-03-18T02:22:41;2.42;;;2.10;;
24743;SDS011;12844;52.110;5.548;2023-03-18T02:28:02;2.83;;;2.05;;
24743;SDS011;12844;52.110;5.548;2023-03-18T02:30:32;2.75;;;2.00;;
24743;SDS011;12844;52.110;5.548;2023-03-18T02:33:02;3.22;;;2.08;;
24743;SDS011;12844;52.110;5.548;2023-03-18T02:35:29;3.17;;;2.30;;
24743;SDS011;12844;52.110;5.548;2023-03-18T02:37:56;2.47;;;2.20;;
24743;SDS011;12844;52.110;5.548;2023-03-18T02:40:29;2.72;;;2.13;;
24743;SDS011;12844;52.110;5.548;2023-03-18T02:43:13;2.83;;;2.15;;
24743;SDS011;12844;52.110;5.548;2023-03-18T02:48:34;2.45;;;1.80;;
24743;SDS011;12844;52.110;5.548;2023-03-18T02:51:03;2.42;;;2.20;;
24743;SDS011;12844;52.110;5.548;2023-03-18T02:53:29;3.42;;;2.40;;
24743;SDS011;12844;52.110;5.548;2023-03-18T02:55:55;2.70;;;2.15;;
24743;SDS011;12844;52.110;5.548;2023-03-18T02:58:21;3.25;;;2.63;;
24743;SDS011;12844;52.110;5.548;2023-03-18T03:00:46;2.90;;;2.60;;
24743;SDS011;12844;52.110;5.548;2023-03-18T03:03:12;2.20;;;2.00;;
24743;SDS011;12844;52.110;5.548;2023-03-18T03:05:38;2.55;;;2.22;;
24743;SDS011;12844;52.110;5.548;2023-03-18T03:08:03;2.47;;;2.20;;
24743;SDS011;12844;52.110;5.548;2023-03-18T03:10:29;2.85;;;2.53;;
24743;SDS011;12844;52.110;5.548;2023-03-18T03:12:55;2.90;;;2.38;;
24743;SDS011;12844;52.110;5.548;2023-03-18T03:15:21;2.33;;;2.10;;
24743;SDS011;12844;52.110;5.548;2023-03-18T03:17:47;2.75;;;2.28;;
24743;SDS011;12844;52.110;5.548;2023-03-18T03:20:13;2.78;;;2.30;;
24743;SDS011;12844;52.110;5.548;2023-03-18T03:22:39;3.03;;;2.42;;
24743;SDS011;12844;52.110;5.548;2023-03-18T03:25:06;2.67;;;2.20;;
24743;SDS011;12844;52.110;5.548;2023-03-18T03:27:33;2.47;;;2.25;;
24743;SDS011;12844;52.110;5.548;2023-03-18T03:30:00;2.97;;;2.38;;
24743;SDS011;12844;52.110;5.548;2023-03-18T03:32:26;2.80;;;2.28;;
24743;SDS011;12844;52.110;5.548;2023-03-18T03:34:52;3.15;;;2.42;;
24743;SDS011;12844;52.110;5.548;2023-03-18T03:37:18;2.50;;;2.30;;
24743;SDS011;12844;52.110;5.548;2023-03-18T03:39:44;2.60;;;2.40;;
24743;SDS011;12844;52.110;5.548;2023-03-18T03:42:09;3.17;;;2.40;;
24743;SDS011;12844;52.110;5.548;2023-03-18T03:44:35;2.80;;;2.38;;
24743;SDS011;12844;52.110;5.548;2023-03-18T03:47:01;3.38;;;2.33;;
24743;SDS011;12844;52.110;5.548;2023-03-18T03:49:27;3.55;;;2.67;;
24743;SDS011;12844;52.110;5.548;2023-03-18T03:51:53;3.30;;;2.53;;
24743;SDS011;12844;52.110;5.548;2023-03-18T03:54:18;3.25;;;2.38;;
24743;SDS011;12844;52.110;5.548;2023-03-18T03:56:44;2.75;;;2.35;;
24743;SDS011;12844;52.110;5.548;2023-03-18T03:59:10;2.90;;;2.53;;
24743;SDS011;12844;52.110;5.548;2023-03-18T04:01:35;3.38;;;2.67;;
24743;SDS011;12844;52.110;5.548;2023-03-18T04:04:01;2.45;;;2.10;;
24743;SDS011;12844;52.110;5.548;2023-03-18T04:06:28;3.20;;;2.60;;
24743;SDS011;12844;52.110;5.548;2023-03-18T04:08:54;3.35;;;2.63;;
24743;SDS011;12844;52.110;5.548;2023-03-18T04:11:20;3.20;;;2.55;;
24743;SDS011;12844;52.110;5.548;2023-03-18T04:13:46;3.00;;;2.58;;
24743;SDS011;12844;52.110;5.548;2023-03-18T04:16:11;2.80;;;2.50;;
24743;SDS011;12844;52.110;5.548;2023-03-18T04:18:38;3.47;;;2.60;;
24743;SDS011;12844;52.110;5.548;2023-03-18T04:21:04;3.00;;;2.60;;
24743;SDS011;12844;52.110;5.548;2023-03-18T04:23:29;3.22;;;2.70;;
24743;SDS011;12844;52.110;5.548;2023-03-18T04:25:57;3.00;;;2.58;;
24743;SDS011;12844;52.110;5.548;2023-03-18T04:28:22;3.00;;;2.70;;
24743;SDS011;12844;52.110;5.548;2023-03-18T04:30:48;3.47;;;2.70;;
24743;SDS011;12844;52.110;5.548;2023-03-18T04:33:14;3.47;;;2.72;;
24743;SDS011;12844;52.110;5.548;2023-03-18T04:35:40;3.10;;;2.80;;
24743;SDS011;12844;52.110;5.548;2023-03-18T04:38:08;4.15;;;2.72;;
24743;SDS011;12844;52.110;5.548;2023-03-18T04:43:04;3.53;;;2.78;;
24743;SDS011;12844;52.110;5.548;2023-03-18T04:45:29;3.13;;;2.65;;
24743;SDS011;12844;52.110;5.548;2023-03-18T04:47:55;4.00;;;3.13;;
24743;SDS011;12844;52.110;5.548;2023-03-18T04:50:20;3.45;;;2.65;;
24743;SDS011;12844;52.110;5.548;2023-03-18T04:52:46;2.97;;;2.40;;
24743;SDS011;12844;52.110;5.548;2023-03-18T04:55:12;2.88;;;2.45;;
24743;SDS011;12844;52.110;5.548;2023-03-18T04:57:40;3.17;;;2.70;;
24743;SDS011;12844;52.110;5.548;2023-03-18T05:00:07;3.78;;;2.85;;
24743;SDS011;12844;52.110;5.548;2023-03-18T05:02:35;3.45;;;2.65;;
24743;SDS011;12844;52.110;5.548;2023-03-18T05:05:02;3.58;;;2.72;;
24743;SDS011;12844;52.110;5.548;2023-03-18T05:07:28;3.85;;;3.00;;
24743;SDS011;12844;52.110;5.548;2023-03-18T05:09:54;3.55;;;2.88;;
24743;SDS011;12844;52.110;5.548;2023-03-18T05:12:19;3.83;;;2.80;;
24743;SDS011;12844;52.110;5.548;2023-03-18T05:14:45;3.58;;;2.80;;
24743;SDS011;12844;52.110;5.548;2023-03-18T05:17:11;3.58;;;2.78;;
24743;SDS011;12844;52.110;5.548;2023-03-18T05:19:43;2.97;;;2.67;;
24743;SDS011;12844;52.110;5.548;2023-03-18T05:22:10;3.15;;;2.80;;
24743;SDS011;12844;52.110;5.548;2023-03-18T05:24:36;3.35;;;2.70;;
24743;SDS011;12844;52.110;5.548;2023-03-18T05:27:02;3.60;;;3.15;;
24743;SDS011;12844;52.110;5.548;2023-03-18T05:29:28;3.72;;;2.90;;
24743;SDS011;12844;52.110;5.548;2023-03-18T05:31:54;3.70;;;3.20;;
24743;SDS011;12844;52.110;5.548;2023-03-18T05:34:19;3.80;;;2.90;;
24743;SDS011;12844;52.110;5.548;2023-03-18T05:36:45;3.75;;;2.90;;
24743;SDS011;12844;52.110;5.548;2023-03-18T05:39:11;3.95;;;3.13;;
24743;SDS011;12844;52.110;5.548;2023-03-18T05:41:36;3.72;;;3.17;;
24743;SDS011;12844;52.110;5.548;2023-03-18T05:44:02;3.60;;;2.80;;
24743;SDS011;12844;52.110;5.548;2023-03-18T05:46:29;4.90;;;3.10;;
24743;SDS011;12844;52.110;5.548;2023-03-18T05:48:55;3.10;;;2.70;;
24743;SDS011;12844;52.110;5.548;2023-03-18T05:51:21;3.55;;;3.20;;
24743;SDS011;12844;52.110;5.548;2023-03-18T05:53:47;3.92;;;3.03;;
24743;SDS011;12844;52.110;5.548;2023-03-18T05:56:12;3.28;;;2.88;;
24743;SDS011;12844;52.110;5.548;2023-03-18T05:58:39;3.45;;;3.05;;
24743;SDS011;12844;52.110;5.548;2023-03-18T06:01:04;3.60;;;3.15;;
24743;SDS011;12844;52.110;5.548;2023-03-18T06:03:31;3.33;;;2.90;;
24743;SDS011;12844;52.110;5.548;2023-03-18T06:05:58;3.20;;;2.90;;
24743;SDS011;12844;52.110;5.548;2023-03-18T06:08:25;3.63;;;2.92;;
24743;SDS011;12844;52.110;5.548;2023-03-18T06:10:51;3.33;;;3.03;;
24743;SDS011;12844;52.110;5.548;2023-03-18T06:13:18;3.95;;;3.22;;
24743;SDS011;12844;52.110;5.548;2023-03-18T06:15:43;3.92;;;3.38;;
24743;SDS011;12844;52.110;5.548;2023-03-18T06:18:10;3.60;;;3.10;;
24743;SDS011;12844;52.110;5.548;2023-03-18T06:20:36;4.22;;;3.35;;
24743;SDS011;12844;52.110;5.548;2023-03-18T06:23:01;3.40;;;2.97;;
24743;SDS011;12844;52.110;5.548;2023-03-18T06:25:27;4.05;;;3.45;;
24743;SDS011;12844;52.110;5.548;2023-03-18T06:27:53;3.38;;;2.90;;
24743;SDS011;12844;52.110;5.548;2023-03-18T06:30:18;3.80;;;3.20;;
24743;SDS011;12844;52.110;5.548;2023-03-18T06:32:44;4.20;;;3.50;;
24743;SDS011;12844;52.110;5.548;2023-03-18T06:35:11;3.65;;;3.00;;
24743;SDS011;12844;52.110;5.548;2023-03-18T06:37:37;4.30;;;3.40;;
24743;SDS011;12844;52.110;5.548;2023-03-18T06:40:03;4.13;;;3.05;;
24743;SDS011;12844;52.110;5.548;2023-03-18T06:42:30;3.75;;;3.08;;
24743;SDS011;12844;52.110;5.548;2023-03-18T06:44:55;4.43;;;3.22;;
24743;SDS011;12844;52.110;5.548;2023-03-18T06:47:21;4.00;;;3.30;;
24743;SDS011;12844;52.110;5.548;2023-03-18T06:49:47;3.97;;;3.10;;
24743;SDS011;12844;52.110;5.548;2023-03-18T06:52:13;4.13;;;3.10;;
24743;SDS011;12844;52.110;5.548;2023-03-18T06:54:39;4.20;;;3.20;;
24743;SDS011;12844;52.110;5.548;2023-03-18T06:57:05;4.22;;;3.20;;
24743;SDS011;12844;52.110;5.548;2023-03-18T06:59:32;4.47;;;3.45;;
24743;SDS011;12844;52.110;5.548;2023-03-18T07:01:58;4.18;;;3.33;;
24743;SDS011;12844;52.110;5.548;2023-03-18T07:04:23;3.35;;;2.90;;
24743;SDS011;12844;52.110;5.548;2023-03-18T07:06:49;4.10;;;3.22;;
24743;SDS011;12844;52.110;5.548;2023-03-18T07:09:16;4.88;;;3.50;;
24743;SDS011;12844;52.110;5.548;2023-03-18T07:11:43;3.88;;;3.20;;
24743;SDS011;12844;52.110;5.548;2023-03-18T07:14:10;3.95;;;2.92;;
24743;SDS011;12844;52.110;5.548;2023-03-18T07:16:38;4.45;;;3.10;;
24743;SDS011;12844;52.110;5.548;2023-03-18T07:19:04;3.85;;;3.20;;
24743;SDS011;12844;52.110;5.548;2023-03-18T07:21:30;4.07;;;3.35;;
24743;SDS011;12844;52.110;5.548;2023-03-18T07:23:55;3.83;;;3.35;;
24743;SDS011;12844;52.110;5.548;2023-03-18T07:26:21;4.25;;;3.20;;
24743;SDS011;12844;52.110;5.548;2023-03-18T07:28:47;5.45;;;3.90;;
24743;SDS011;12844;52.110;5.548;2023-03-18T07:31:12;3.47;;;3.17;;
24743;SDS011;12844;52.110;5.548;2023-03-18T07:33:38;4.50;;;3.80;;
24743;SDS011;12844;52.110;5.548;2023-03-18T07:36:04;4.25;;;3.65;;
24743;SDS011;12844;52.110;5.548;2023-03-18T07:38:30;4.32;;;3.58;;
24743;SDS011;12844;52.110;5.548;2023-03-18T07:40:55;4.65;;;3.58;;
24743;SDS011;12844;52.110;5.548;2023-03-18T07:43:21;3.92;;;3.53;;
24743;SDS011;12844;52.110;5.548;2023-03-18T07:45:47;4.18;;;3.67;;
24743;SDS011;12844;52.110;5.548;2023-03-18T07:48:13;4.40;;;3.70;;
24743;SDS011;12844;52.110;5.548;2023-03-18T07:50:39;5.00;;;4.22;;
24743;SDS011;12844;52.110;5.548;2023-03-18T07:53:05;4.25;;;3.50;;
24743;SDS011;12844;52.110;5.548;2023-03-18T07:55:31;5.60;;;4.18;;
24743;SDS011;12844;52.110;5.548;2023-03-18T07:57:56;4.90;;;4.00;;
24743;SDS011;12844;52.110;5.548;2023-03-18T08:00:22;4.40;;;3.97;;
24743;SDS011;12844;52.110;5.548;2023-03-18T08:02:48;5.95;;;4.20;;
24743;SDS011;12844;52.110;5.548;2023-03-18T08:05:13;5.75;;;4.57;;
24743;SDS011;12844;52.110;5.548;2023-03-18T08:07:39;5.78;;;4.32;;
24743;SDS011;12844;52.110;5.548;2023-03-18T08:10:05;5.05;;;4.55;;
24743;SDS011;12844;52.110;5.548;2023-03-18T08:12:32;4.75;;;4.25;;
24743;SDS011;12844;52.110;5.548;2023-03-18T08:14:58;4.57;;;4.15;;
24743;SDS011;12844;52.110;5.548;2023-03-18T08:17:24;5.10;;;4.20;;
24743;SDS011;12844;52.110;5.548;2023-03-18T08:19:50;4.80;;;4.40;;
24743;SDS011;12844;52.110;5.548;2023-03-18T08:22:15;5.22;;;4.43;;
24743;SDS011;12844;52.110;5.548;2023-03-18T08:24:41;6.80;;;5.65;;
24743;SDS011;12844;52.110;5.548;2023-03-18T08:27:07;6.15;;;5.40;;
24743;SDS011;12844;52.110;5.548;2023-03-18T08:29:33;6.18;;;5.18;;
24743;SDS011;12844;52.110;5.548;2023-03-18T08:31:59;5.85;;;5.07;;
24743;SDS011;12844;52.110;5.548;2023-03-18T08:34:25;7.07;;;5.95;;
24743;SDS011;12844;52.110;5.548;2023-03-18T08:36:51;6.53;;;5.82;;
24743;SDS011;12844;52.110;5.548;2023-03-18T08:39:16;5.93;;;5.32;;
24743;SDS011;12844;52.110;5.548;2023-03-18T08:41:42;6.45;;;5.60;;
24743;SDS011;12844;52.110;5.548;2023-03-18T08:44:08;6.80;;;5.28;;
24743;SDS011;12844;52.110;5.548;2023-03-18T08:46:34;7.05;;;5.93;;
24743;SDS011;12844;52.110;5.548;2023-03-18T08:49:00;5.55;;;4.95;;
24743;SDS011;12844;52.110;5.548;2023-03-18T08:51:26;5.85;;;4.82;;
24743;SDS011;12844;52.110;5.548;2023-03-18T08:53:53;7.00;;;5.20;;
24743;SDS011;12844;52.110;5.548;2023-03-18T08:56:19;5.50;;;4.30;;
24743;SDS011;12844;52.110;5.548;2023-03-18T08:58:44;5.93;;;5.22;;
24743;SDS011;12844;52.110;5.548;2023-03-18T09:01:10;5.78;;;4.57;;
24743;SDS011;12844;52.110;5.548;2023-03-18T09:03:36;5.13;;;4.63;;
24743;SDS011;12844;52.110;5.548;2023-03-18T09:06:01;5.45;;;4.95;;
24743;SDS011;12844;52.110;5.548;2023-03-18T09:08:27;5.05;;;4.55;;
24743;SDS011;12844;52.110;5.548;2023-03-18T09:10:55;5.20;;;4.70;;
24743;SDS011;12844;52.110;5.548;2023-03-18T09:13:22;6.35;;;4.90;;
24743;SDS011;12844;52.110;5.548;2023-03-18T09:15:48;5.40;;;4.78;;
24743;SDS011;12844;52.110;5.548;2023-03-18T09:18:14;6.15;;;5.05;;
24743;SDS011;12844;52.110;5.548;2023-03-18T09:20:42;6.05;;;5.05;;
24743;SDS011;12844;52.110;5.548;2023-03-18T09:23:09;5.30;;;4.78;;
24743;SDS011;12844;52.110;5.548;2023-03-18T09:25:36;5.03;;;4.32;;
24743;SDS011;12844;52.110;5.548;2023-03-18T09:28:02;5.68;;;4.60;;
24743;SDS011;12844;52.110;5.548;2023-03-18T09:30:28;5.50;;;4.53;;
24743;SDS011;12844;52.110;5.548;2023-03-18T09:32:54;5.30;;;4.80;;
24743;SDS011;12844;52.110;5.548;2023-03-18T09:35:20;5.10;;;4.60;;
24743;SDS011;12844;52.110;5.548;2023-03-18T09:37:46;5.07;;;4.50;;
24743;SDS011;12844;52.110;5.548;2023-03-18T09:40:15;4.85;;;4.35;;
24743;SDS011;12844;52.110;5.548;2023-03-18T09:42:57;5.32;;;4.82;;
24743;SDS011;12844;52.110;5.548;2023-03-18T09:51:02;4.90;;;4.35;;
24743;SDS011;12844;52.110;5.548;2023-03-18T09:53:51;5.53;;;4.63;;
24743;SDS011;12844;52.110;5.548;2023-03-18T09:56:22;4.70;;;4.13;;
24743;SDS011;12844;52.110;5.548;2023-03-18T10:01:24;4.50;;;4.10;;
24743;SDS011;12844;52.110;5.548;2023-03-18T10:03:53;4.07;;;3.65;;
24743;SDS011;12844;52.110;5.548;2023-03-18T10:06:25;4.47;;;3.90;;
24743;SDS011;12844;52.110;5.548;2023-03-18T10:11:40;5.07;;;4.13;;
24743;SDS011;12844;52.110;5.548;2023-03-18T10:14:32;4.57;;;3.97;;
24743;SDS011;12844;52.110;5.548;2023-03-18T10:17:17;4.95;;;3.67;;
24743;SDS011;12844;52.110;5.548;2023-03-18T10:19:48;3.83;;;3.50;;
24743;SDS011;12844;52.110;5.548;2023-03-18T10:25:14;4.55;;;3.63;;
24743;SDS011;12844;52.110;5.548;2023-03-18T10:27:44;3.88;;;3.30;;
24743;SDS011;12844;52.110;5.548;2023-03-18T10:35:58;3.67;;;3.28;;
24743;SDS011;12844;52.110;5.548;2023-03-18T10:38:30;4.40;;;3.25;;
24743;SDS011;12844;52.110;5.548;2023-03-18T10:43:30;3.80;;;3.40;;
24743;SDS011;12844;52.110;5.548;2023-03-18T10:46:04;3.88;;;3.47;;
24743;SDS011;12844;52.110;5.548;2023-03-18T10:51:15;3.53;;;3.13;;
24743;SDS011;12844;52.110;5.548;2023-03-18T10:56:34;3.83;;;3.40;;
24743;SDS011;12844;52.110;5.548;2023-03-18T10:59:00;3.45;;;3.05;;
24743;SDS011;12844;52.110;5.548;2023-03-18T11:01:32;3.67;;;3.30;;
24743;SDS011;12844;52.110;5.548;2023-03-18T11:04:00;3.42;;;3.13;;
24743;SDS011;12844;52.110;5.548;2023-03-18T11:09:12;3.50;;;3.20;;
24743;SDS011;12844;52.110;5.548;2023-03-18T11:11:42;3.40;;;2.95;;
24743;SDS011;12844;52.110;5.548;2023-03-18T11:14:26;3.38;;;2.78;;
24743;SDS011;12844;52.110;5.548;2023-03-18T11:22:00;3.97;;;3.05;;
24743;SDS011;12844;52.110;5.548;2023-03-18T11:24:41;3.33;;;2.80;;
24743;SDS011;12844;52.110;5.548;2023-03-18T11:29:43;3.67;;;2.80;;
24743;SDS011;12844;52.110;5.548;2023-03-18T11:34:56;3.20;;;2.90;;
24743;SDS011;12844;52.110;5.548;2023-03-18T11:40:05;3.22;;;2.72;;
24743;SDS011;12844;52.110;5.548;2023-03-18T11:42:53;3.90;;;3.45;;
24743;SDS011;12844;52.110;5.548;2023-03-18T11:47:58;3.08;;;2.60;;
24743;SDS011;12844;52.110;5.548;2023-03-18T11:50:26;3.22;;;2.72;;
24743;SDS011;12844;52.110;5.548;2023-03-18T11:55:50;3.13;;;2.80;;
24743;SDS011;12844;52.110;5.548;2023-03-18T11:58:25;3.25;;;2.78;;
24743;SDS011;12844;52.110;5.548;2023-03-18T12:04:08;3.25;;;2.70;;
24743;SDS011;12844;52.110;5.548;2023-03-18T12:06:58;3.25;;;2.70;;
24743;SDS011;12844;52.110;5.548;2023-03-18T12:12:01;3.17;;;2.75;;
24743;SDS011;12844;52.110;5.548;2023-03-18T12:14:58;3.33;;;2.50;;
24743;SDS011;12844;52.110;5.548;2023-03-18T12:23:01;3.08;;;2.63;;
24743;SDS011;12844;52.110;5.548;2023-03-18T12:28:13;3.85;;;2.60;;
24743;SDS011;12844;52.110;5.548;2023-03-18T12:36:57;3.03;;;2.22;;
24743;SDS011;12844;52.110;5.548;2023-03-18T12:42:31;2.45;;;2.22;;
24743;SDS011;12844;52.110;5.548;2023-03-18T12:45:08;3.03;;;2.15;;
24743;SDS011;12844;52.110;5.548;2023-03-18T12:47:45;2.88;;;2.20;;
24743;SDS011;12844;52.110;5.548;2023-03-18T12:50:31;2.60;;;2.10;;
24743;SDS011;12844;52.110;5.548;2023-03-18T12:55:38;2.35;;;2.10;;
24743;SDS011;12844;52.110;5.548;2023-03-18T12:58:11;3.47;;;2.38;;
24743;SDS011;12844;52.110;5.548;2023-03-18T13:13:55;2.53;;;2.05;;
24743;SDS011;12844;52.110;5.548;2023-03-18T13:16:26;3.03;;;2.20;;
24743;SDS011;12844;52.110;5.548;2023-03-18T13:18:54;2.58;;;2.10;;
24743;SDS011;12844;52.110;5.548;2023-03-18T13:21:22;2.55;;;2.05;;
24743;SDS011;12844;52.110;5.548;2023-03-18T13:24:15;2.50;;;2.28;;
24743;SDS011;12844;52.110;5.548;2023-03-18T13:29:55;3.03;;;2.10;;
24743;SDS011;12844;52.110;5.548;2023-03-18T13:41:20;2.65;;;1.83;;
24743;SDS011;12844;52.110;5.548;2023-03-18T13:44:04;3.40;;;2.17;;
24743;SDS011;12844;52.110;5.548;2023-03-18T13:46:45;2.75;;;2.05;;
24743;SDS011;12844;52.110;5.548;2023-03-18T13:49:21;2.45;;;2.10;;
24743;SDS011;12844;52.110;5.548;2023-03-18T13:51:52;2.60;;;2.03;;
24743;SDS011;12844;52.110;5.548;2023-03-18T13:54:23;3.13;;;1.90;;
24743;SDS011;12844;52.110;5.548;2023-03-18T13:59:47;2.17;;;1.77;;
24743;SDS011;12844;52.110;5.548;2023-03-18T14:02:33;2.38;;;1.90;;
24743;SDS011;12844;52.110;5.548;2023-03-18T14:07:56;2.60;;;2.20;;
24743;SDS011;12844;52.110;5.548;2023-03-18T14:10:21;3.40;;;1.80;;
24743;SDS011;12844;52.110;5.548;2023-03-18T14:12:47;2.55;;;1.90;;
24743;SDS011;12844;52.110;5.548;2023-03-18T14:17:45;2.60;;;1.88;;
24743;SDS011;12844;52.110;5.548;2023-03-18T14:22:43;2.60;;;1.90;;
24743;SDS011;12844;52.110;5.548;2023-03-18T14:27:49;2.63;;;1.70;;
24743;SDS011;12844;52.110;5.548;2023-03-18T14:33:00;1.92;;;1.63;;
24743;SDS011;12844;52.110;5.548;2023-03-18T14:35:49;2.53;;;1.70;;
24743;SDS011;12844;52.110;5.548;2023-03-18T14:38:21;2.45;;;1.70;;
24743;SDS011;12844;52.110;5.548;2023-03-18T14:40:50;2.17;;;1.70;;
24743;SDS011;12844;52.110;5.548;2023-03-18T14:43:20;2.25;;;1.83;;
24743;SDS011;12844;52.110;5.548;2023-03-18T14:45:51;2.25;;;1.70;;
24743;SDS011;12844;52.110;5.548;2023-03-18T14:48:26;2.20;;;1.50;;
24743;SDS011;12844;52.110;5.548;2023-03-18T14:50:55;2.58;;;1.55;;
24743;SDS011;12844;52.110;5.548;2023-03-18T14:55:56;2.10;;;1.60;;
24743;SDS011;12844;52.110;5.548;2023-03-18T14:58:22;2.00;;;1.50;;
24743;SDS011;12844;52.110;5.548;2023-03-18T15:00:51;1.73;;;1.48;;
24743;SDS011;12844;52.110;5.548;2023-03-18T15:03:33;1.77;;;1.33;;
24743;SDS011;12844;52.110;5.548;2023-03-18T15:05:59;1.67;;;1.48;;
24743;SDS011;12844;52.110;5.548;2023-03-18T15:08:28;1.83;;;1.45;;
24743;SDS011;12844;52.110;5.548;2023-03-18T15:10:56;2.30;;;1.40;;
24743;SDS011;12844;52.110;5.548;2023-03-18T15:13:23;2.42;;;1.88;;
24743;SDS011;12844;52.110;5.548;2023-03-18T15:15:51;2.05;;;1.30;;
24743;SDS011;12844;52.110;5.548;2023-03-18T15:18:28;2.15;;;1.60;;
24743;SDS011;12844;52.110;5.548;2023-03-18T15:23:33;2.22;;;1.35;;
24743;SDS011;12844;52.110;5.548;2023-03-18T15:26:02;2.92;;;1.50;;
24743;SDS011;12844;52.110;5.548;2023-03-18T15:28:30;2.53;;;1.88;;
24743;SDS011;12844;52.110;5.548;2023-03-18T15:30:57;2.55;;;1.60;;
24743;SDS011;12844;52.110;5.548;2023-03-18T15:33:34;2.00;;;1.50;;
24743;SDS011;12844;52.110;5.548;2023-03-18T15:36:06;1.75;;;1.60;;
24743;SDS011;12844;52.110;5.548;2023-03-18T15:38:44;1.85;;;1.45;;
24743;SDS011;12844;52.110;5.548;2023-03-18T15:41:11;2.20;;;1.40;;
24743;SDS011;12844;52.110;5.548;2023-03-18T15:43:39;2.38;;;1.38;;
24743;SDS011;12844;52.110;5.548;2023-03-18T15:46:13;2.08;;;1.42;;
24743;SDS011;12844;52.110;5.548;2023-03-18T15:48:55;2.38;;;1.40;;
24743;SDS011;12844;52.110;5.548;2023-03-18T15:51:22;2.65;;;1.80;;
24743;SDS011;12844;52.110;5.548;2023-03-18T15:53:52;1.55;;;1.42;;
24743;SDS011;12844;52.110;5.548;2023-03-18T15:56:29;1.70;;;1.45;;
24743;SDS011;12844;52.110;5.548;2023-03-18T15:58:57;1.50;;;1.40;;
24743;SDS011;12844;52.110;5.548;2023-03-18T16:01:33;1.77;;;1.50;;
24743;SDS011;12844;52.110;5.548;2023-03-18T16:03:59;2.42;;;1.40;;
24743;SDS011;12844;52.110;5.548;2023-03-18T16:06:26;2.00;;;1.42;;
24743;SDS011;12844;52.110;5.548;2023-03-18T16:08:52;1.85;;;1.50;;
24743;SDS011;12844;52.110;5.548;2023-03-18T16:11:18;1.50;;;1.33;;
24743;SDS011;12844;52.110;5.548;2023-03-18T16:13:45;1.65;;;1.40;;
24743;SDS011;12844;52.110;5.548;2023-03-18T16:16:14;1.75;;;1.40;;
24743;SDS011;12844;52.110;5.548;2023-03-18T16:18:42;1.85;;;1.23;;
24743;SDS011;12844;52.110;5.548;2023-03-18T16:21:10;2.20;;;1.20;;
24743;SDS011;12844;52.110;5.548;2023-03-18T16:23:37;2.13;;;1.45;;
24743;SDS011;12844;52.110;5.548;2023-03-18T16:26:05;1.65;;;1.40;;
24743;SDS011;12844;52.110;5.548;2023-03-18T16:28:38;2.65;;;1.45;;
24743;SDS011;12844;52.110;5.548;2023-03-18T16:31:03;1.20;;;1.10;;
24743;SDS011;12844;52.110;5.548;2023-03-18T16:33:29;2.13;;;1.58;;
24743;SDS011;12844;52.110;5.548;2023-03-18T16:35:58;1.35;;;1.20;;
24743;SDS011;12844;52.110;5.548;2023-03-18T16:38:25;2.08;;;1.40;;
24743;SDS011;12844;52.110;5.548;2023-03-18T16:40:52;1.55;;;1.23;;
24743;SDS011;12844;52.110;5.548;2023-03-18T16:43:20;2.60;;;1.40;;
24743;SDS011;12844;52.110;5.548;2023-03-18T16:45:48;1.52;;;1.38;;
24743;SDS011;12844;52.110;5.548;2023-03-18T16:48:16;1.65;;;1.20;;
24743;SDS011;12844;52.110;5.548;2023-03-18T16:50:43;2.20;;;1.40;;
24743;SDS011;12844;52.110;5.548;2023-03-18T18:03:08;1.27;;;1.00;;
24743;SDS011;12844;52.110;5.548;2023-03-18T18:05:45;1.27;;;1.10;;
24743;SDS011;12844;52.110;5.548;2023-03-18T18:08:15;1.38;;;1.20;;
24743;SDS011;12844;52.110;5.548;2023-03-18T18:10:42;1.90;;;1.23;;
24743;SDS011;12844;52.110;5.548;2023-03-18T18:13:16;1.63;;;1.20;;
24743;SDS011;12844;52.110;5.548;2023-03-18T18:15:44;1.45;;;1.35;;
24743;SDS011;12844;52.110;5.548;2023-03-18T18:18:22;1.50;;;1.30;;
24743;SDS011;12844;52.110;5.548;2023-03-18T18:20:53;1.10;;;0.90;;
24743;SDS011;12844;52.110;5.548;2023-03-18T18:23:27;1.30;;;1.20;;